Airfield :
LOGIN :

Register | Disclaimer

   EN    FR    IT 

 










Legend :    VFR   Marginal VFR   IFR   Intensive IFR   Very Intensive IFR
Visi :
Ceiling :
>= 8 km
>= 3000ft
5 to 8 km
1000 to 3000 ft
1500m to 5 km
500 to 1000 ft
800 to 1500m
200 to 500 ft
< 800m
< 200 ft
Symbols :   Thunderstorms  Fog  Heavy snow  Heavy precipitations  Wind > 20 kt
SIGMETs :     Misc.  Thunderstorms  Icing  Turbulence  Mountain Waves  Volcanic Ashes






- Airport Elevation : 37 ft
- IATA code : HLY


EGOV - RAF Valley

CURRENT METAR :
  • 071750Z AUTO 26019KT 9999 BKN031/// 13/07 Q1014

EXPIRED METARs :
  • 071720Z AUTO 26015KT 9999 FEW037/// 13/07 Q1014
  • 071650Z AUTO 25012KT 9999 FEW039/// 13/08 Q1014
  • 071620Z AUTO 26016KT 9999 NCD 14/07 Q1013
  • 071550Z AUTO 26016KT 9999 FEW067/// 15/08 Q1013
  • 071520Z 25018KT 9999 FEW030 15/07 Q1013 NOSIG RMK BLU BLU

TAF TAF EGOV
Valid from the 07 at 15:00 until the 07 at 19:00 UTC


071327Z 0715/0719 25016KT 9999 FEW020 SCT030
PROB30
TEMPO 0715/0719 26016G26KT 3000 +SHRA SCT018CB



MET'MAP, your aeronautical weather chart ! - Copyright ORBIFLY December 2007 - Disclaimer

ORBIFLY MET'MAP TEAM :

Programming & Development : Alexandra Zaïnal
Original concept : Baudouin d'Aumeries
Technical & hardware support : Manuel Goepfert
Assistance : Marc-Olivier Méhu




SOURCES & CREDITS :

   NOAA